Terminal Aerodrome Forecast
Issued by NWS Wilmington, NC

Home | Current Version | Previous Version | Text Only | Print | Product List | Glossary On
Versions: 1 2 3 4 5 6 7 8 9 10 11 12 13 14 15 16 17 18 19 20 21 22 23 24 25
000
FTUS42 KILM 060500
TAFLBT
TAF
KLBT 060527Z 0606/0706 03014G20KT P6SM BKN012 OVC035
      TEMPO 0606/0609 SCT012 BKN040
     FM060900 02014G21KT P6SM SCT020 BKN045
      TEMPO 0610/0613 BKN025
     FM061600 03012KT P6SM SCT050
     FM062300 03003KT P6SM SKC=

USA.gov is the U.S. government's official web portal to all federal, state and local government web resources and services.